LAX weather

Los Angeles International Airport
Los Angeles, California, United States

Public forecast

Using degrees Fahrenheit for public forecast. Weather courtesy of forecast.io.

Current aviation weather report (METAR) for Los Angeles International Airport

Retrieved 2020/08/05 17:53 UTC (1 hour ago):

KLAX 051753Z 26008KT 8SM OVC020 20/15 A2996 RMK AO2 SLP145 T02000150 10206 20189 53006

Aviation forecast (TAF) for Los Angeles International Airport

Retrieved 2020/08/05 18:42 UTC (14 minutes ago):

TAF KLAX 051739Z 0518/0624 VRB04KT P6SM OVC020 FM052100 26012KT P6SM SKC FM060400 26006KT P6SM OVC012 FM061200 16007KT P6SM OVC014 FM061700 26006KT P6SM BKN016 FM061900 26012KT P6SM SCT020